Greene, North Dakota
Current Conditions -  °F | °C
As of 11:58 AM on Friday 21 Nov 2014 (Local Time) from KMIB Reporting Station
Clear Clear  
Wind Chill: 39°   Ceiling: Unl
Heat Index: 47°   Visibility: 10mi
Dew Point: 29°   Wind: 18mph
Humidity: 50%   Direction: 260°W
Pressure: 29.58"   Gusts: 25mph
Location:  48.822°N, 101.868°W
Report Text: KMIB 211758Z AUTO 26016G22KT 10SM CLR 08/M02 A2958 RMK AO2 SLP039 T00811017 10081 21036 58012
Loading
Personal Weather Stations






























Interactive Weather Map New forecast layout! Learn more

10-Day Weather Forecast

Advertisements
Track Severe Weather on mobile